Time;durP1;ratioP1;P1;durP2;ratioP2;P2;SDS_P1;SDS_P2;PMS_P1;PMS_P2;Temp;Humidity;BMP_temperature;BMP_pressure;BME280_temperature;BME280_humidity;BME280_pressure;Samples;Min_cycle;Max_cycle;Signal;HPM_P1;HPM_P2
2023/02/21 02:14:40;;;;;;;0.45;0.45;;;4.70;90.40;;;;;;5038064;28;20756;-67
2023/02/21 02:17:17;;;;;;;0.82;0.60;;;4.80;90.40;;;;;;5048255;28;20242;-67
2023/02/21 02:20:03;;;;;;;0.60;0.57;;;4.80;90.40;;;;;;5046647;28;20199;-68
2023/02/21 02:23:07;;;;;;;0.65;0.65;;;4.80;90.50;;;;;;5048541;28;20270;-67
2023/02/21 02:26:04;;;;;;;1.30;1.15;;;4.70;90.50;;;;;;5047067;28;20703;-67
2023/02/21 02:28:49;;;;;;;3.15;1.60;;;4.70;90.50;;;;;;5036795;28;20200;-66
2023/02/21 02:31:39;;;;;;;0.80;0.70;;;4.70;90.50;;;;;;5048039;28;20306;-66
2023/02/21 02:34:54;;;;;;;0.75;0.75;;;4.70;90.50;;;;;;5028146;28;20208;-66
2023/02/21 02:37:30;;;;;;;0.40;0.40;;;4.70;90.40;;;;;;4966002;28;20292;-66
2023/02/21 02:40:02;;;;;;;0.90;0.90;;;4.70;90.50;;;;;;5029885;28;20223;-66
2023/02/21 02:42:40;;;;;;;0.45;0.45;;;4.60;90.50;;;;;;5061596;28;20261;-66
2023/02/21 02:45:15;;;;;;;1.05;0.50;;;4.60;90.70;;;;;;5048385;28;20203;-67
2023/02/21 02:47:45;;;;;;;0.70;0.68;;;4.60;90.70;;;;;;5063188;28;20282;-67
2023/02/21 02:50:13;;;;;;;2.58;1.30;;;4.60;90.70;;;;;;5046847;28;20210;-66
2023/02/21 02:52:52;;;;;;;0.77;0.75;;;4.60;90.70;;;;;;5046552;28;20200;-66
2023/02/21 02:55:30;;;;;;;1.15;1.10;;;4.50;90.70;;;;;;5047549;28;20216;-66
2023/02/21 02:57:59;;;;;;;0.55;0.55;;;4.50;90.70;;;;;;5049461;28;20223;-67
2023/02/21 03:00:27;;;;;;;7.15;2.17;;;4.40;90.90;;;;;;5067264;28;20300;-66
2023/02/21 03:03:10;;;;;;;1.13;1.00;;;4.40;91.00;;;;;;5056846;28;20654;-66
2023/02/21 03:05:49;;;;;;;0.30;0.20;;;4.40;90.90;;;;;;5047079;28;20653;-66
2023/02/21 03:08:26;;;;;;;0.40;0.40;;;4.40;90.90;;;;;;5047139;28;20211;-66
2023/02/21 03:10:58;;;;;;;1.73;1.08;;;4.30;91.10;;;;;;5032856;28;20266;-66
2023/02/21 03:13:35;;;;;;;0.70;0.60;;;4.20;91.20;;;;;;5030526;28;20208;-66
2023/02/21 03:16:08;;;;;;;2.65;1.58;;;4.20;91.00;;;;;;5026841;28;20303;-66
2023/02/21 03:18:42;;;;;;;0.98;0.95;;;4.20;90.90;;;;;;5033118;28;20204;-66
2023/02/21 03:21:13;;;;;;;2.28;1.20;;;4.10;91.10;;;;;;5047077;28;20223;-66
2023/02/21 03:23:45;;;;;;;0.63;0.63;;;4.10;91.10;;;;;;5046803;28;20206;-66
2023/02/21 03:26:14;;;;;;;0.68;0.68;;;4.10;91.50;;;;;;5047233;28;20713;-66
2023/02/21 03:28:42;;;;;;;0.90;0.60;;;4.00;91.40;;;;;;5037260;28;20581;-66
2023/02/21 03:31:13;;;;;;;0.43;0.43;;;4.00;91.50;;;;;;5026901;28;20241;-66
2023/02/21 03:33:40;;;;;;;9.32;0.95;;;4.00;91.40;;;;;;5030819;28;20224;-67
2023/02/21 03:36:09;;;;;;;0.70;0.63;;;4.00;91.60;;;;;;5047048;28;20562;-66
2023/02/21 03:38:37;;;;;;;0.68;0.68;;;4.00;91.70;;;;;;5041756;28;20694;-66
2023/02/21 03:41:06;;;;;;;0.93;0.93;;;4.00;92.20;;;;;;5058782;28;20239;-66
2023/02/21 03:43:34;;;;;;;1.20;1.02;;;4.00;92.10;;;;;;5049640;28;20295;-66
2023/02/21 03:46:02;;;;;;;1.35;0.60;;;4.00;92.40;;;;;;5054451;28;20226;-66
2023/02/21 03:48:29;;;;;;;0.75;0.63;;;4.00;92.50;;;;;;5058927;28;20202;-66
2023/02/21 03:50:57;;;;;;;0.57;0.57;;;4.00;92.50;;;;;;5046788;28;20235;-66
2023/02/21 03:53:24;;;;;;;1.15;0.93;;;4.00;92.30;;;;;;5035674;28;20255;-66
2023/02/21 03:55:51;;;;;;;0.32;0.32;;;4.00;92.10;;;;;;5026932;28;20225;-66
2023/02/21 03:58:20;;;;;;;1.10;1.10;;;4.00;91.90;;;;;;5039271;28;20277;-66
2023/02/21 04:00:48;;;;;;;0.55;0.55;;;3.90;91.90;;;;;;5066953;28;20229;-66
2023/02/21 04:03:17;;;;;;;0.40;0.38;;;3.80;92.00;;;;;;5052346;28;20204;-66
2023/02/21 04:05:44;;;;;;;0.50;0.50;;;3.70;92.10;;;;;;5046513;28;20309;-66
2023/02/21 04:08:11;;;;;;;1.67;1.20;;;3.80;92.40;;;;;;5045267;28;20289;-66
2023/02/21 04:10:38;;;;;;;0.82;0.82;;;3.70;92.60;;;;;;5039845;28;20236;-66
2023/02/21 04:13:06;;;;;;;0.60;0.47;;;3.80;92.50;;;;;;5037184;28;20211;-67
2023/02/21 04:15:34;;;;;;;0.50;0.50;;;3.80;92.30;;;;;;5046804;28;20314;-66
2023/02/21 04:18:01;;;;;;;0.30;0.30;;;3.70;92.30;;;;;;5043610;28;20228;-67
2023/02/21 04:20:27;;;;;;;0.40;0.40;;;3.70;92.20;;;;;;5045637;28;20318;-67
2023/02/21 04:22:54;;;;;;;0.70;0.65;;;3.70;92.20;;;;;;5045752;28;20576;-67
2023/02/21 04:25:21;;;;;;;0.47;0.45;;;3.70;92.20;;;;;;5046884;28;20200;-66
2023/02/21 04:27:48;;;;;;;0.73;0.63;;;3.70;92.10;;;;;;5042402;28;20197;-67
2023/02/21 04:30:15;;;;;;;2.30;0.93;;;3.70;92.30;;;;;;5025251;28;20211;-66
2023/02/21 04:32:43;;;;;;;0.70;0.60;;;3.70;92.20;;;;;;5035087;28;20196;-66
2023/02/21 04:35:09;;;;;;;1.05;0.95;;;3.70;92.10;;;;;;5046084;28;20199;-67
2023/02/21 04:37:37;;;;;;;1.58;1.08;;;3.70;92.20;;;;;;5046256;28;20747;-66
2023/02/21 04:40:04;;;;;;;0.60;0.40;;;3.60;92.20;;;;;;5044477;28;20209;-67
2023/02/21 04:42:31;;;;;;;0.43;0.43;;;3.60;92.20;;;;;;5059111;28;20218;-66
2023/02/21 04:44:57;;;;;;;1.00;0.93;;;3.60;92.40;;;;;;5032002;28;20208;-66
2023/02/21 04:47:24;;;;;;;0.93;0.93;;;3.60;92.40;;;;;;5064705;28;20233;-66
2023/02/21 04:49:52;;;;;;;0.70;0.70;;;3.70;92.50;;;;;;5044261;28;20291;-67
2023/02/21 04:52:20;;;;;;;0.55;0.55;;;3.60;92.80;;;;;;5034123;28;20225;-66
2023/02/21 04:54:47;;;;;;;0.40;0.40;;;3.60;92.50;;;;;;5026771;28;20204;-66
2023/02/21 04:57:15;;;;;;;0.47;0.47;;;3.60;92.60;;;;;;5029937;28;20239;-66
2023/02/21 04:59:42;;;;;;;1.23;1.05;;;3.60;92.70;;;;;;5047476;28;20239;-66
2023/02/21 05:02:09;;;;;;;1.42;1.27;;;3.60;92.80;;;;;;5049610;28;20583;-66
2023/02/21 05:04:36;;;;;;;0.52;0.52;;;3.50;92.70;;;;;;5036896;28;20561;-66
2023/02/21 05:07:05;;;;;;;1.10;1.05;;;3.40;92.70;;;;;;5029667;28;20233;-65
2023/02/21 05:09:32;;;;;;;0.88;0.85;;;3.40;92.80;;;;;;5029710;28;20201;-66
2023/02/21 05:11:58;;;;;;;2.63;0.47;;;3.40;92.80;;;;;;5031722;28;20216;-66
2023/02/21 05:14:25;;;;;;;1.95;0.60;;;3.40;93.00;;;;;;5050485;28;20207;-66
2023/02/21 05:16:52;;;;;;;0.68;0.68;;;3.40;92.90;;;;;;5048955;28;20236;-66
2023/02/21 05:19:26;;;;;;;0.98;0.98;;;3.40;92.80;;;;;;5043894;28;20206;-66
2023/02/21 05:21:54;;;;;;;0.60;0.60;;;3.40;92.70;;;;;;5048940;28;20220;-67
2023/02/21 05:24:22;;;;;;;0.52;0.52;;;3.30;92.80;;;;;;5049220;28;20662;-66
2023/02/21 05:26:49;;;;;;;0.57;0.30;;;3.30;92.90;;;;;;5049378;28;20231;-66
2023/02/21 05:29:16;;;;;;;0.70;0.70;;;3.20;93.00;;;;;;5034929;28;20203;-67
2023/02/21 05:31:42;;;;;;;0.80;0.80;;;3.30;93.10;;;;;;5029615;28;20644;-66
2023/02/21 05:34:09;;;;;;;0.50;0.40;;;3.40;93.00;;;;;;5049762;28;20746;-66
2023/02/21 05:36:36;;;;;;;1.42;0.80;;;3.40;92.90;;;;;;5048842;28;20748;-67
2023/02/21 05:39:04;;;;;;;0.50;0.50;;;3.40;92.70;;;;;;5042774;28;20228;-67
2023/02/21 05:41:32;;;;;;;1.00;1.00;;;3.40;92.80;;;;;;5068865;28;20223;-67
2023/02/21 05:43:59;;;;;;;3.60;0.52;;;3.40;92.90;;;;;;5061383;28;20196;-66
2023/02/21 05:46:28;;;;;;;0.40;0.38;;;3.40;93.00;;;;;;5042339;28;20217;-67
2023/02/21 05:48:57;;;;;;;1.10;1.05;;;3.40;93.00;;;;;;5042363;28;20206;-66
2023/02/21 05:51:26;;;;;;;0.40;0.30;;;3.30;93.10;;;;;;5047021;28;20234;-68
2023/02/21 05:53:52;;;;;;;2.38;1.88;;;3.30;93.50;;;;;;5046627;28;20215;-67
2023/02/21 05:56:21;;;;;;;0.70;0.70;;;3.30;93.00;;;;;;5048251;28;20573;-67
2023/02/21 05:58:49;;;;;;;1.88;1.77;;;3.30;92.90;;;;;;5057575;28;20238;-68
2023/02/21 06:01:16;;;;;;;0.88;0.65;;;3.30;92.90;;;;;;5068557;28;20219;-67
2023/02/21 06:03:43;;;;;;;1.52;1.15;;;3.30;93.00;;;;;;5051478;28;20200;-67
2023/02/21 06:06:09;;;;;;;0.63;0.63;;;3.30;93.10;;;;;;5047738;28;20846;-67
2023/02/21 06:08:43;;;;;;;0.70;0.70;;;3.30;93.00;;;;;;5047926;28;20203;-67
2023/02/21 06:11:10;;;;;;;0.63;0.40;;;3.30;93.10;;;;;;5042985;28;20220;-66
2023/02/21 06:13:36;;;;;;;1.38;1.02;;;3.30;93.10;;;;;;5038263;28;20197;-67
2023/02/21 06:16:05;;;;;;;0.60;0.52;;;3.30;93.40;;;;;;5028273;28;20223;-67
2023/02/21 06:18:32;;;;;;;0.40;0.40;;;3.30;93.50;;;;;;5042628;28;20232;-67
2023/02/21 06:20:59;;;;;;;0.30;0.30;;;3.30;93.30;;;;;;5048059;28;20733;-67
2023/02/21 06:23:25;;;;;;;1.02;0.82;;;3.30;93.50;;;;;;5038086;28;20209;-67
2023/02/21 06:25:52;;;;;;;0.75;0.65;;;3.30;93.30;;;;;;5036278;28;20234;-67
2023/02/21 06:28:19;;;;;;;2.53;2.33;;;3.30;93.20;;;;;;5039862;28;20278;-67
2023/02/21 06:30:46;;;;;;;1.02;0.93;;;3.30;93.20;;;;;;5039329;28;20230;-67
2023/02/21 06:33:15;;;;;;;0.50;0.50;;;3.30;93.20;;;;;;5036535;28;20211;-67
2023/02/21 06:35:42;;;;;;;4.28;3.05;;;3.30;93.20;;;;;;5036206;28;20834;-67
2023/02/21 06:38:09;;;;;;;2.17;1.98;;;3.30;93.30;;;;;;5039812;28;20215;-66
2023/02/21 06:40:36;;;;;;;1.67;1.38;;;3.30;93.40;;;;;;5041462;28;20243;-67
2023/02/21 06:43:03;;;;;;;0.60;0.60;;;3.30;93.40;;;;;;5041232;28;20655;-67
2023/02/21 06:45:30;;;;;;;0.40;0.40;;;3.30;93.40;;;;;;5025426;28;20216;-68
2023/02/21 06:47:57;;;;;;;1.25;1.10;;;3.20;93.50;;;;;;5040758;28;20529;-67
2023/02/21 06:50:25;;;;;;;1.45;0.80;;;3.20;93.70;;;;;;5040817;28;20716;-66
2023/02/21 06:52:52;;;;;;;2.70;1.33;;;3.20;93.90;;;;;;5046202;28;20200;-66
2023/02/21 06:55:20;;;;;;;1.70;1.60;;;3.20;93.70;;;;;;5041189;28;20201;-67
2023/02/21 06:57:47;;;;;;;1.48;0.50;;;3.20;93.70;;;;;;5032012;28;20234;-67
2023/02/21 07:00:15;;;;;;;1.17;1.15;;;3.20;93.70;;;;;;5038360;28;20200;-66
2023/02/21 07:02:43;;;;;;;0.82;0.82;;;3.20;94.10;;;;;;5037481;28;20230;-68
2023/02/21 07:05:10;;;;;;;1.30;1.25;;;3.20;93.90;;;;;;5047301;28;20196;-67
2023/02/21 07:07:38;;;;;;;1.02;0.98;;;3.30;93.90;;;;;;5043543;28;20195;-67
2023/02/21 07:10:06;;;;;;;6.70;2.13;;;3.40;93.90;;;;;;5044567;28;20188;-66
2023/02/21 07:12:33;;;;;;;0.50;0.50;;;3.40;94.00;;;;;;5039046;28;20315;-67
2023/02/21 07:14:59;;;;;;;0.98;0.93;;;3.40;94.10;;;;;;5040942;28;20215;-67
2023/02/21 07:17:26;;;;;;;2.15;1.05;;;3.40;94.20;;;;;;5047392;28;20232;-67
2023/02/21 07:19:55;;;;;;;3.05;1.17;;;3.50;94.20;;;;;;5043038;28;20200;-66
2023/02/21 07:22:24;;;;;;;0.68;0.68;;;3.70;94.30;;;;;;5045919;28;20718;-67
2023/02/21 07:24:53;;;;;;;2.70;1.23;;;3.70;94.30;;;;;;5027633;28;20280;-66
2023/02/21 07:27:20;;;;;;;1.00;1.00;;;3.80;94.30;;;;;;5027726;28;20765;-66
2023/02/21 07:29:48;;;;;;;5.97;1.33;;;4.00;94.10;;;;;;5044339;28;20215;-67
2023/02/21 07:32:15;;;;;;;1.52;1.05;;;4.00;94.20;;;;;;5046321;28;20230;-67
2023/02/21 07:34:42;;;;;;;1.00;1.00;;;4.20;94.20;;;;;;5030029;28;20579;-67
2023/02/21 07:37:09;;;;;;;3.95;1.13;;;4.30;94.10;;;;;;5027102;28;20606;-67
2023/02/21 07:39:36;;;;;;;1.60;1.15;;;4.40;94.00;;;;;;5035123;28;20223;-67
2023/02/21 07:42:06;;;;;;;1.77;1.60;;;4.50;94.00;;;;;;5038114;28;20575;-67
2023/02/21 07:44:33;;;;;;;0.88;0.85;;;4.60;94.00;;;;;;5047311;28;20286;-67
2023/02/21 07:47:00;;;;;;;0.63;0.63;;;4.80;94.20;;;;;;5048146;28;20230;-67
2023/02/21 07:49:27;;;;;;;1.58;1.48;;;4.90;94.30;;;;;;5033634;28;20765;-67
2023/02/21 07:51:54;;;;;;;1.98;1.73;;;4.90;94.40;;;;;;5028694;28;20643;-67
2023/02/21 07:54:22;;;;;;;3.95;1.88;;;5.10;94.30;;;;;;5042733;28;20666;-67
2023/02/21 07:56:49;;;;;;;1.02;1.02;;;5.20;94.30;;;;;;5029158;28;20251;-68
2023/02/21 07:59:17;;;;;;;1.03;1.00;;;5.40;94.30;;;;;;5037064;28;20780;-67
2023/02/21 08:01:45;;;;;;;1.02;0.93;;;5.50;93.90;;;;;;5043336;28;20650;-67
2023/02/21 08:04:13;;;;;;;1.38;1.27;;;5.60;93.80;;;;;;5030160;28;20223;-67
2023/02/21 08:06:40;;;;;;;1.58;1.42;;;5.80;93.90;;;;;;5027042;28;20729;-67
2023/02/21 08:09:07;;;;;;;1.40;1.30;;;5.90;93.80;;;;;;5027725;28;20209;-67
2023/02/21 08:11:35;;;;;;;2.03;1.83;;;6.00;93.70;;;;;;5031664;28;20255;-67
2023/02/21 08:14:02;;;;;;;0.98;0.90;;;6.10;93.50;;;;;;5042815;28;20192;-67
2023/02/21 08:16:30;;;;;;;2.58;1.85;;;6.20;93.30;;;;;;5027260;28;20231;-67
2023/02/21 08:18:57;;;;;;;1.00;0.85;;;6.30;93.20;;;;;;5035353;28;20223;-67
2023/02/21 08:21:24;;;;;;;1.70;1.63;;;6.50;93.20;;;;;;5032034;28;20540;-67
2023/02/21 08:23:53;;;;;;;1.58;1.13;;;6.60;93.10;;;;;;5027971;28;20280;-67
2023/02/21 08:26:20;;;;;;;6.65;2.10;;;6.70;93.10;;;;;;5025441;28;20689;-68
2023/02/21 08:28:46;;;;;;;2.65;2.05;;;6.80;93.00;;;;;;5026780;28;20201;-67
2023/02/21 08:31:13;;;;;;;9.98;2.75;;;6.90;92.90;;;;;;5028894;28;20221;-67
2023/02/21 08:33:41;;;;;;;2.22;1.98;;;7.00;92.60;;;;;;5047464;28;20210;-68
2023/02/21 08:36:08;;;;;;;2.75;2.25;;;7.20;92.50;;;;;;5050783;28;20232;-67
2023/02/21 08:38:35;;;;;;;2.30;1.70;;;7.30;92.50;;;;;;5041285;28;20980;-67
2023/02/21 08:41:03;;;;;;;1.57;1.40;;;7.40;92.30;;;;;;5065515;28;20267;-67
2023/02/21 08:43:30;;;;;;;2.60;2.40;;;7.50;91.90;;;;;;5055713;28;20624;-67
2023/02/21 08:45:56;;;;;;;1.87;1.43;;;7.70;92.10;;;;;;5044406;28;20219;-67
2023/02/21 08:48:23;;;;;;;6.93;1.60;;;7.80;92.30;;;;;;5046995;28;20630;-67
2023/02/21 08:50:52;;;;;;;2.33;2.13;;;7.90;92.20;;;;;;5030436;28;21239;-68
2023/02/21 08:53:19;;;;;;;2.93;2.73;;;8.10;91.80;;;;;;5030309;28;20627;-67
2023/02/21 08:55:46;;;;;;;2.40;2.20;;;8.20;91.70;;;;;;5029709;28;21102;-67
2023/02/21 08:58:13;;;;;;;3.07;1.93;;;8.40;91.10;;;;;;5040825;28;20613;-67
2023/02/21 09:00:40;;;;;;;4.30;2.17;;;8.50;91.00;;;;;;5049921;28;20654;-67
2023/02/21 09:03:07;;;;;;;1.47;1.37;;;8.60;91.00;;;;;;5039732;28;20622;-67
2023/02/21 09:05:34;;;;;;;2.77;1.70;;;8.70;91.00;;;;;;5030803;28;20654;-67
2023/02/21 09:08:04;;;;;;;4.30;1.73;;;8.80;90.60;;;;;;5041049;28;20626;-67
2023/02/21 09:10:33;;;;;;;5.90;1.87;;;8.90;90.30;;;;;;5032548;28;20658;-67
2023/02/21 09:13:00;;;;;;;8.50;1.83;;;9.00;90.40;;;;;;5036589;28;21089;-67
2023/02/21 09:15:27;;;;;;;2.07;1.93;;;9.20;90.20;;;;;;5047186;28;20648;-67
2023/02/21 09:17:54;;;;;;;4.80;1.97;;;9.20;90.10;;;;;;5030728;28;20718;-66
2023/02/21 09:20:24;;;;;;;2.70;2.00;;;9.40;90.00;;;;;;5029633;28;20678;-66
2023/02/21 09:22:51;;;;;;;3.70;2.83;;;9.50;89.60;;;;;;5035200;28;20646;-66
2023/02/21 09:25:23;;;;;;;1.73;1.63;;;9.50;90.00;;;;;;5047704;28;21284;-67
2023/02/21 09:27:50;;;;;;;1.87;1.67;;;9.60;88.70;;;;;;5048411;28;21206;-66
2023/02/21 09:30:20;;;;;;;2.27;2.10;;;9.70;88.60;;;;;;5029285;28;20988;-66
2023/02/21 09:32:47;;;;;;;3.77;2.63;;;9.80;88.30;;;;;;5036070;28;20661;-66
2023/02/21 09:35:15;;;;;;;1.60;1.50;;;9.90;87.70;;;;;;5049363;28;20616;-67
2023/02/21 09:37:43;;;;;;;2.93;2.07;;;9.90;87.90;;;;;;5049515;28;21204;-67
2023/02/21 09:40:19;;;;;;;4.03;2.20;;;10.00;86.30;;;;;;5048404;28;20669;-67
2023/02/21 09:42:50;;;;;;;1.97;1.87;;;10.10;87.00;;;;;;5061923;28;20732;-66
2023/02/21 09:45:18;;;;;;;1.53;1.40;;;10.30;85.90;;;;;;5051059;28;20614;-66
2023/02/21 09:47:49;;;;;;;1.87;1.77;;;10.30;84.90;;;;;;5041406;28;20740;-66
2023/02/21 09:50:20;;;;;;;2.73;2.53;;;10.40;84.90;;;;;;5049134;28;20628;-66
2023/02/21 09:52:47;;;;;;;2.40;1.57;;;10.50;84.90;;;;;;5029947;28;20984;-66
2023/02/21 09:55:26;;;;;;;3.90;2.40;;;10.60;84.90;;;;;;5029395;28;20623;-66
2023/02/21 09:57:55;;;;;;;2.47;1.90;;;10.70;84.50;;;;;;5032263;28;20626;-66
2023/02/21 10:00:24;;;;;;;1.93;1.63;;;10.70;84.70;;;;;;5048033;28;20677;-66
2023/02/21 10:02:59;;;;;;;3.33;2.90;;;10.80;84.60;;;;;;5036311;28;20628;-66
2023/02/21 10:05:39;;;;;;;2.47;2.27;;;10.80;83.90;;;;;;5029364;28;20654;-67
2023/02/21 10:08:11;;;;;;;1.77;1.43;;;10.90;84.90;;;;;;5035467;28;20618;-66
2023/02/21 10:10:44;;;;;;;3.87;3.00;;;11.10;84.50;;;;;;5045488;28;20662;-66
2023/02/21 10:13:23;;;;;;;6.63;2.20;;;11.10;85.10;;;;;;5042142;28;20621;-66
2023/02/21 10:15:55;;;;;;;1.90;1.70;;;11.20;85.10;;;;;;5048767;28;20652;-66
2023/02/21 10:18:31;;;;;;;1.60;1.50;;;11.20;83.20;;;;;;5048491;28;20623;-66
2023/02/21 10:21:03;;;;;;;0.90;0.90;;;11.30;83.70;;;;;;5048592;28;20732;-66
2023/02/21 10:23:37;;;;;;;1.40;1.30;;;11.40;82.50;;;;;;5036933;28;20987;-66
2023/02/21 10:26:08;;;;;;;1.70;1.10;;;11.40;81.20;;;;;;5028937;28;20713;-66
2023/02/21 10:28:38;;;;;;;1.37;1.17;;;11.40;82.30;;;;;;5036773;28;20630;-66
2023/02/21 10:31:11;;;;;;;1.00;0.80;;;11.50;80.00;;;;;;5049102;28;20658;-67
2023/02/21 10:33:39;;;;;;;1.37;1.07;;;11.50;79.10;;;;;;5032635;28;20629;-66
2023/02/21 10:36:12;;;;;;;1.03;0.70;;;11.60;79.70;;;;;;5028726;28;21036;-66
2023/02/21 10:38:42;;;;;;;1.50;1.27;;;11.60;79.60;;;;;;5027776;28;20619;-67
2023/02/21 10:41:10;;;;;;;0.80;0.80;;;11.70;78.90;;;;;;5061711;28;21301;-67
2023/02/21 10:43:43;;;;;;;1.83;1.30;;;11.80;79.60;;;;;;5050500;28;20633;-66
2023/02/21 10:46:17;;;;;;;1.07;0.97;;;11.80;81.00;;;;;;5056657;28;20700;-66
2023/02/21 10:48:46;;;;;;;1.10;0.97;;;11.90;79.80;;;;;;5055834;28;20970;-66
2023/02/21 10:51:15;;;;;;;1.10;0.87;;;12.00;78.90;;;;;;5048179;28;21015;-66
2023/02/21 10:53:43;;;;;;;0.70;0.70;;;12.00;76.90;;;;;;5032933;28;20661;-66
2023/02/21 10:56:28;;;;;;;1.27;1.17;;;12.00;77.10;;;;;;5028030;28;20690;-66
2023/02/21 10:58:59;;;;;;;1.30;1.10;;;12.00;78.60;;;;;;5052307;28;20632;-66
2023/02/21 11:01:41;;;;;;;2.10;1.17;;;12.10;79.40;;;;;;5068282;28;21228;-66
2023/02/21 11:04:26;;;;;;;2.23;1.00;;;12.10;78.30;;;;;;5043730;28;20625;-66
2023/02/21 11:06:55;;;;;;;1.20;1.10;;;12.20;79.70;;;;;;5047262;28;20662;-67
2023/02/21 11:09:31;;;;;;;1.13;1.03;;;12.30;79.10;;;;;;5038881;28;20623;-66
2023/02/21 11:12:04;;;;;;;1.77;1.50;;;12.30;79.20;;;;;;5032347;28;20650;-66
2023/02/21 11:14:33;;;;;;;1.33;1.23;;;12.40;78.30;;;;;;5047139;28;20830;-66
2023/02/21 11:17:18;;;;;;;2.20;1.47;;;12.40;78.80;;;;;;5029726;28;20663;-66
2023/02/21 11:19:52;;;;;;;1.40;1.20;;;12.50;78.90;;;;;;5043124;28;20697;-66
2023/02/21 11:22:22;;;;;;;1.83;1.00;;;12.50;78.30;;;;;;5047416;28;20642;-66
2023/02/21 11:25:01;;;;;;;2.47;1.60;;;12.60;78.20;;;;;;5026559;28;21218;-66
2023/02/21 11:27:31;;;;;;;1.90;1.43;;;12.60;77.10;;;;;;5027425;28;20650;-66
2023/02/21 11:30:01;;;;;;;0.97;0.97;;;12.60;77.90;;;;;;5046317;28;20714;-66
2023/02/21 11:32:32;;;;;;;1.70;1.60;;;12.70;77.80;;;;;;5040558;28;20634;-66
2023/02/21 11:35:15;;;;;;;1.23;1.13;;;12.70;77.50;;;;;;5027725;28;20986;-66
2023/02/21 11:37:51;;;;;;;3.33;1.27;;;12.70;78.00;;;;;;5027497;28;20725;-66
2023/02/21 11:40:31;;;;;;;2.20;1.60;;;12.70;78.40;;;;;;5042141;28;20665;-66
2023/02/21 11:43:22;;;;;;;0.67;0.67;;;12.70;77.00;;;;;;5037013;28;21525;-66
2023/02/21 11:46:15;;;;;;;0.90;0.90;;;12.80;77.60;;;;;;5038997;28;21060;-67
2023/02/21 11:48:49;;;;;;;0.83;0.83;;;12.80;76.40;;;;;;5066702;28;20627;-66
2023/02/21 11:51:26;;;;;;;3.33;1.60;;;12.80;76.20;;;;;;5067293;28;21073;-67
2023/02/21 11:53:53;;;;;;;1.37;1.27;;;12.80;76.10;;;;;;5050234;28;20683;-67
2023/02/21 11:56:29;;;;;;;1.17;1.10;;;12.90;75.80;;;;;;5045986;28;20650;-66
2023/02/21 11:59:03;;;;;;;0.97;0.97;;;12.90;75.20;;;;;;5046506;28;20618;-67
2023/02/21 12:01:39;;;;;;;1.27;1.17;;;12.90;75.50;;;;;;5040621;28;20651;-66
2023/02/21 12:04:21;;;;;;;1.00;0.80;;;13.00;75.20;;;;;;5034457;28;21129;-66
2023/02/21 12:06:57;;;;;;;1.33;1.10;;;12.90;75.00;;;;;;5046514;28;20748;-67
2023/02/21 12:09:28;;;;;;;1.87;1.67;;;12.90;75.50;;;;;;5036768;28;20635;-67
2023/02/21 12:12:17;;;;;;;1.90;1.23;;;13.00;75.10;;;;;;5029337;28;20689;-67
2023/02/21 12:14:55;;;;;;;2.10;1.10;;;13.10;75.40;;;;;;5028181;28;21056;-66
2023/02/21 12:17:58;;;;;;;2.60;1.67;;;13.10;74.20;;;;;;5047150;28;20652;-66
2023/02/21 12:20:50;;;;;;;3.80;2.00;;;13.20;73.50;;;;;;5026937;28;20674;-66
2023/02/21 12:23:23;;;;;;;1.20;1.10;;;13.20;73.10;;;;;;5018693;28;20639;-66
2023/02/21 12:26:05;;;;;;;0.90;0.90;;;13.20;73.40;;;;;;5026861;28;20651;-67
2023/02/21 12:28:44;;;;;;;3.03;1.40;;;13.30;73.40;;;;;;5026651;28;20627;-66
2023/02/21 12:31:23;;;;;;;1.10;0.97;;;13.20;73.40;;;;;;5026872;28;20643;-67
2023/02/21 12:34:01;;;;;;;1.30;1.13;;;13.20;74.30;;;;;;5027312;28;21286;-67
2023/02/21 12:36:39;;;;;;;2.50;1.60;;;13.30;73.60;;;;;;5026675;28;20646;-67
2023/02/21 12:39:21;;;;;;;3.10;0.83;;;13.40;72.10;;;;;;5026197;28;20638;-65
2023/02/21 12:42:09;;;;;;;1.20;1.10;;;13.50;72.20;;;;;;5042905;28;21238;-68
2023/02/21 12:44:48;;;;;;;3.37;1.10;;;13.50;71.70;;;;;;5047427;28;20622;-67
2023/02/21 12:47:20;;;;;;;1.33;0.80;;;13.50;71.60;;;;;;5049093;28;20665;-66
2023/02/21 12:49:54;;;;;;;1.27;1.03;;;13.50;72.00;;;;;;5046424;28;20717;-66
2023/02/21 12:52:27;;;;;;;2.50;1.07;;;13.50;71.70;;;;;;5046760;28;20645;-66
2023/02/21 12:55:01;;;;;;;5.20;1.90;;;13.60;71.90;;;;;;5030929;28;20635;-66
2023/02/21 12:57:34;;;;;;;1.43;1.00;;;13.70;70.30;;;;;;5026180;28;20745;-66
2023/02/21 13:00:06;;;;;;;1.40;1.27;;;13.70;69.60;;;;;;5026153;28;20698;-67
2023/02/21 13:02:42;;;;;;;1.80;0.93;;;13.80;69.30;;;;;;5027014;28;20868;-66
2023/02/21 13:05:18;;;;;;;3.97;1.27;;;13.80;68.60;;;;;;5026946;28;20619;-67
2023/02/21 13:07:49;;;;;;;0.80;0.80;;;13.80;69.70;;;;;;5026440;28;20637;-66
2023/02/21 13:10:20;;;;;;;0.70;0.60;;;13.70;70.00;;;;;;5043013;28;20631;-66
2023/02/21 13:12:51;;;;;;;1.10;1.00;;;13.80;68.60;;;;;;5029632;28;20650;-66
2023/02/21 13:15:21;;;;;;;0.40;0.40;;;13.80;69.20;;;;;;5031122;28;20631;-66
2023/02/21 13:17:58;;;;;;;1.23;1.13;;;13.80;69.80;;;;;;5043671;28;21173;-66
2023/02/21 13:20:31;;;;;;;0.83;0.83;;;13.90;69.60;;;;;;5030769;28;21128;-66
2023/02/21 13:23:38;;;;;;;1.70;0.80;;;13.90;68.80;;;;;;5041271;28;20741;-66
2023/02/21 13:26:36;;;;;;;1.30;0.50;;;13.90;68.30;;;;;;5030427;28;21063;-66
2023/02/21 13:29:10;;;;;;;0.60;0.57;;;13.90;68.00;;;;;;5029835;28;20627;-67
2023/02/21 13:31:44;;;;;;;1.60;1.07;;;14.00;67.40;;;;;;5030030;28;20742;-66
2023/02/21 13:34:14;;;;;;;0.80;0.70;;;14.00;67.60;;;;;;5029888;28;21210;-66
2023/02/21 13:36:45;;;;;;;0.90;0.90;;;14.10;68.00;;;;;;5029707;28;20666;-67
2023/02/21 13:39:14;;;;;;;0.97;0.70;;;14.10;67.10;;;;;;5030367;28;20682;-66
2023/02/21 13:41:45;;;;;;;0.60;0.60;;;14.10;67.10;;;;;;5069308;28;21245;-66
2023/02/21 13:44:17;;;;;;;1.60;0.83;;;14.10;67.50;;;;;;5049751;28;20618;-67
2023/02/21 13:47:04;;;;;;;0.80;0.60;;;14.10;67.30;;;;;;5063034;28;21097;-66
2023/02/21 13:49:49;;;;;;;0.50;0.40;;;14.20;66.70;;;;;;5068904;28;20597;-66
2023/02/21 13:52:35;;;;;;;1.10;1.00;;;14.10;67.20;;;;;;5041231;28;20690;-67
2023/02/21 13:55:34;;;;;;;0.77;0.63;;;14.20;66.90;;;;;;5029597;28;20614;-66
2023/02/21 13:58:42;;;;;;;0.40;0.40;;;14.20;66.30;;;;;;5036885;28;20626;-66
2023/02/21 14:01:45;;;;;;;0.40;0.40;;;14.20;66.10;;;;;;5069130;28;21130;-66
2023/02/21 14:04:50;;;;;;;0.60;0.47;;;14.20;65.40;;;;;;5069882;28;20625;-66
2023/02/21 14:07:17;;;;;;;0.53;0.47;;;14.20;65.80;;;;;;5054864;28;20665;-66
2023/02/21 14:09:46;;;;;;;1.23;0.40;;;14.20;64.70;;;;;;5028803;28;20627;-66
2023/02/21 14:12:15;;;;;;;1.13;0.60;;;14.20;64.70;;;;;;5030960;28;20659;-66
2023/02/21 14:14:42;;;;;;;0.47;0.47;;;14.20;66.10;;;;;;5030598;28;20628;-66
2023/02/21 14:17:12;;;;;;;0.43;0.43;;;14.20;65.00;;;;;;5028824;28;20649;-66
2023/02/21 14:19:43;;;;;;;0.60;0.60;;;14.30;64.70;;;;;;5033307;28;20631;-66
2023/02/21 14:22:14;;;;;;;1.10;0.83;;;14.30;64.40;;;;;;5029871;28;20669;-66
2023/02/21 14:24:47;;;;;;;1.13;0.60;;;14.30;65.00;;;;;;5032280;28;20631;-67
2023/02/21 14:27:37;;;;;;;0.70;0.50;;;14.30;65.00;;;;;;5039282;28;20654;-66
2023/02/21 14:30:24;;;;;;;0.90;0.70;;;14.30;62.80;;;;;;5028494;28;20624;-67
2023/02/21 14:32:53;;;;;;;2.27;0.90;;;14.30;65.10;;;;;;5030172;28;20623;-66
2023/02/21 14:35:32;;;;;;;0.50;0.40;;;14.20;65.10;;;;;;5047989;28;21019;-66
2023/02/21 14:38:01;;;;;;;0.60;0.47;;;14.20;65.00;;;;;;5048183;28;20637;-66
2023/02/21 14:40:39;;;;;;;0.80;0.40;;;14.20;65.10;;;;;;5050502;28;20878;-66
2023/02/21 14:43:32;;;;;;;0.30;0.30;;;14.20;63.70;;;;;;5044891;28;20722;-66
2023/02/21 14:46:29;;;;;;;0.70;0.70;;;14.30;63.80;;;;;;5039096;28;20642;-66
2023/02/21 14:49:12;;;;;;;1.03;0.60;;;14.30;65.30;;;;;;5057953;28;20641;-66
2023/02/21 14:52:01;;;;;;;0.87;0.63;;;14.30;64.90;;;;;;5047848;28;20766;-66
2023/02/21 14:55:00;;;;;;;0.40;0.40;;;14.30;64.20;;;;;;5028895;28;21039;-66
2023/02/21 14:57:52;;;;;;;0.57;0.57;;;14.30;64.10;;;;;;5028419;28;21219;-66
2023/02/21 15:00:25;;;;;;;0.53;0.40;;;14.30;64.90;;;;;;5027108;28;20658;-66
2023/02/21 15:02:56;;;;;;;0.77;0.30;;;14.30;64.60;;;;;;5028125;28;20718;-66
2023/02/21 15:05:27;;;;;;;0.40;0.33;;;14.50;64.50;;;;;;5028336;28;20649;-66
2023/02/21 15:08:02;;;;;;;0.50;0.50;;;14.60;64.80;;;;;;5029292;28;20623;-67
2023/02/21 15:10:30;;;;;;;0.80;0.60;;;14.70;65.00;;;;;;5029336;28;20649;-67
2023/02/21 15:13:02;;;;;;;0.40;0.40;;;14.70;64.10;;;;;;5028070;28;20631;-66
2023/02/21 15:15:32;;;;;;;0.40;0.37;;;14.70;64.80;;;;;;5047286;28;20658;-66
2023/02/21 15:18:04;;;;;;;0.77;0.30;;;14.60;63.70;;;;;;5046804;28;20614;-66
2023/02/21 15:20:32;;;;;;;0.40;0.33;;;14.50;65.30;;;;;;5047636;28;20670;-66
2023/02/21 15:23:02;;;;;;;0.40;0.40;;;14.50;64.60;;;;;;5046988;28;20633;-67
2023/02/21 15:25:29;;;;;;;0.63;0.40;;;14.40;64.50;;;;;;5048110;28;20646;-66
2023/02/21 15:28:04;;;;;;;2.40;0.40;;;14.40;65.70;;;;;;5046357;28;20654;-66
2023/02/21 15:30:37;;;;;;;0.50;0.30;;;14.40;65.20;;;;;;5027761;28;20647;-66
2023/02/21 15:33:10;;;;;;;0.77;0.77;;;14.60;68.30;;;;;;5038265;28;20642;-66